Time;durP1;ratioP1;P1;durP2;ratioP2;P2;SDS_P1;SDS_P2;PMS_P1;PMS_P2;Temp;Humidity;BMP_temperature;BMP_pressure;BME280_temperature;BME280_humidity;BME280_pressure;Samples;Min_cycle;Max_cycle;Signal;HPM_P1;HPM_P2
2023/08/21 10:53:59;;;;;;;;;;;;;;;;;;5054389;28;53588;-63
2023/08/21 10:56:25;;;;;;;;;;;;;;;;;;5078383;28;19920;-69
2023/08/21 10:58:51;;;;;;;;;;;;;;;;;;5079585;28;20368;-64
2023/08/21 11:03:01;;;;;;;;;;;;;;;;;;5028415;27;19928;-63
2023/08/21 11:05:26;;;;;;;;;;;;;;;;;;5013547;28;20012;-76
2023/08/21 11:07:51;;;;;;;;;;;;;;;;;;5010111;28;20003;-59
2023/08/21 11:10:17;;;;;;;;;;;;;;;;;;5014011;28;20306;-57
2023/08/21 11:12:42;;;;;;;;;;;;;;;;;;5011363;28;19952;-58
2023/08/21 11:15:07;;;;;;;;;;;;;;;;;;5012826;28;19926;-57
2023/08/21 11:17:32;;;;;;;;;;;;;;;;;;5024218;28;19948;-49
2023/08/21 11:19:57;;;;;;;;;;;;;;;;;;5041600;28;19917;-54
2023/08/21 11:22:23;;;;;;;;;;;;;;;;;;5038880;28;19935;-55
2023/08/21 11:24:48;;;;;;;;;;;;;;;;;;5041580;28;19924;-66
2023/08/21 11:28:30;;;;;;;;;;;;;;;;;;5063486;28;19929;-70
2023/08/21 11:30:55;;;;;;;;;;;;;;;;;;5062552;28;20000;-61
2023/08/21 11:33:21;;;;;;;;;;;;;;;;;;5060352;28;19917;-68
2023/08/21 11:36:00;;;;;;;;;;;;;;;;;;5064716;27;20410;-66
2023/08/21 11:38:26;;;;;;;;;;;;;;;;;;5055112;28;20541;-73
2023/08/21 11:40:51;;;;;;;;;;;;;;;;;;5062563;28;20950;-76
2023/08/21 11:43:16;;;;;;;2.50;0.70;;;;;;;;;;5053390;28;25196;-74
2023/08/21 11:45:41;;;;;;;5.53;1.30;;;;;;;;;;5056919;28;20480;-72
2023/08/21 11:48:07;;;;;;;;;;;;;;;;;;5060331;28;20073;-63
2023/08/21 11:50:32;;;;;;;;;;;;;;;;;;5055498;28;25072;-62
2023/08/21 11:52:57;;;;;;;15.83;2.43;;;;;;;;;;5057419;28;20496;-74
2023/08/21 11:55:22;;;;;;;11.73;1.70;;;;;;;;;;5049001;28;20404;-75
2023/08/21 11:59:39;;;;;;;8.30;1.88;;;;;;;;;;5079764;27;20411;-59
2023/08/21 12:02:09;;;;;;;6.00;1.33;;;;;;;;;;5060330;28;20409;-59
2023/08/21 12:04:35;;;;;;;4.93;1.20;;;;;;;;;;5058019;28;20912;-59
2023/08/21 12:07:00;;;;;;;7.70;1.40;;;;;;;;;;5057645;28;20454;-59
2023/08/21 12:09:26;;;;;;;6.50;1.40;;;;;;;;;;5059494;28;20455;-59
2023/08/21 12:11:51;;;;;;;5.03;1.45;;;;;;;;;;5058428;28;20396;-59
2023/08/21 12:14:17;;;;;;;6.10;1.43;;;;;;;;;;5054646;28;20433;-59
2023/08/21 12:16:42;;;;;;;7.00;1.40;;;;;;;;;;5060376;28;20827;-59
2023/08/21 12:19:09;;;;;;;6.33;1.50;;;;;;;;;;5059993;28;20959;-59
2023/08/21 12:21:37;;;;;;;3.88;1.25;;;;;;;;;;5055605;28;20412;-59
2023/08/21 12:24:03;;;;;;;6.43;1.50;;;;;;;;;;5058339;28;21075;-59
2023/08/21 12:26:28;;;;;;;5.50;1.47;;;;;;;;;;5059543;28;20401;-59
2023/08/21 12:28:53;;;;;;;4.80;1.40;;;;;;;;;;5055716;28;20400;-59
2023/08/21 12:31:18;;;;;;;5.10;1.33;;;;;;;;;;5052810;28;20741;-59
2023/08/21 12:33:44;;;;;;;5.47;1.37;;;;;;;;;;5059648;28;20748;-59
2023/08/21 12:36:09;;;;;;;4.30;1.10;;;;;;;;;;5059835;28;20762;-60
2023/08/21 12:38:34;;;;;;;6.47;2.20;;;;;;;;;;5054695;28;20493;-59
2023/08/21 12:41:01;;;;;;;4.72;1.30;;;;;;;;;;5059077;28;20470;-59
2023/08/21 12:43:26;;;;;;;5.80;1.20;;;;;;;;;;5063521;28;20436;-59
2023/08/21 12:45:51;;;;;;;6.18;1.30;;;;;;;;;;5062903;28;20438;-59
2023/08/21 12:48:17;;;;;;;4.32;1.30;;;;;;;;;;5055421;28;20409;-59
2023/08/21 12:50:42;;;;;;;5.78;1.20;;;;;;;;;;5053581;28;20409;-60
2023/08/21 12:53:08;;;;;;;7.03;1.40;;;;;;;;;;5056652;28;20764;-59
2023/08/21 12:55:33;;;;;;;5.75;1.30;;;;;;;;;;5053962;28;20411;-59
2023/08/21 12:57:58;;;;;;;6.33;1.30;;;;;;;;;;5066042;28;20495;-59
2023/08/21 13:00:24;;;;;;;5.40;1.42;;;;;;;;;;5078139;28;20447;-59
2023/08/21 13:02:49;;;;;;;3.87;1.00;;;;;;;;;;5074176;28;20410;-59
2023/08/21 13:05:14;;;;;;;6.03;1.30;;;;;;;;;;5078311;28;20410;-59
2023/08/21 13:07:41;;;;;;;4.50;1.03;;;;;;;;;;5079417;28;20934;-59
2023/08/21 13:10:06;;;;;;;4.32;1.13;;;;;;;;;;5074396;28;20407;-60
2023/08/21 13:12:31;;;;;;;5.30;1.10;;;;;;;;;;5061499;28;20434;-59
2023/08/21 13:14:58;;;;;;;3.97;1.00;;;;;;;;;;5065788;28;20455;-59
2023/08/21 13:17:23;;;;;;;6.33;1.20;;;;;;;;;;5066831;28;20402;-59
2023/08/21 13:19:49;;;;;;;5.27;1.10;;;;;;;;;;5086773;28;20658;-59
2023/08/21 13:22:15;;;;;;;4.63;0.90;;;;;;;;;;5092226;28;20441;-59
2023/08/21 13:24:41;;;;;;;3.60;1.00;;;;;;;;;;5063074;28;20539;-59
2023/08/21 13:27:06;;;;;;;3.70;0.98;;;;;;;;;;5087032;28;20430;-59
2023/08/21 13:29:32;;;;;;;3.60;1.10;;;;;;;;;;5078614;28;20428;-59
2023/08/21 13:31:57;;;;;;;4.78;1.10;;;;;;;;;;5079181;28;20404;-59
2023/08/21 13:34:22;;;;;;;4.07;1.10;;;;;;;;;;5083976;28;20403;-59
2023/08/21 13:36:48;;;;;;;5.43;1.00;;;;;;;;;;5085505;28;20403;-59
2023/08/21 13:39:15;;;;;;;3.87;1.10;;;;;;;;;;5080392;28;20406;-59
2023/08/21 13:41:40;;;;;;;5.55;1.15;;;;;;;;;;5084676;28;20819;-59
2023/08/21 13:44:05;;;;;;;3.83;1.13;;;;;;;;;;5076035;28;20407;-59
2023/08/21 13:46:32;;;;;;;3.57;0.90;;;;;;;;;;5082345;28;20390;-59
2023/08/21 13:48:57;;;;;;;4.07;1.00;;;;;;;;;;5082517;28;20429;-59
2023/08/21 13:51:23;;;;;;;4.03;1.10;;;;;;;;;;5083650;28;20874;-59
2023/08/21 13:53:48;;;;;;;4.00;1.00;;;;;;;;;;5085268;28;20417;-59
2023/08/21 13:56:14;;;;;;;4.50;1.40;;;;;;;;;;5079336;28;20414;-59
2023/08/21 13:58:39;;;;;;;3.90;0.97;;;;;;;;;;5084255;28;20447;-59
2023/08/21 14:01:06;;;;;;;3.70;1.00;;;;;;;;;;5083754;28;20398;-59
2023/08/21 14:03:31;;;;;;;3.67;1.13;;;;;;;;;;5081732;28;20410;-59
2023/08/21 14:05:57;;;;;;;5.22;1.20;;;;;;;;;;5082978;28;20499;-59
2023/08/21 14:08:22;;;;;;;4.57;1.00;;;;;;;;;;5084400;28;20443;-59
2023/08/21 14:10:47;;;;;;;3.60;1.00;;;;;;;;;;5079795;28;20498;-59
2023/08/21 14:13:12;;;;;;;4.90;1.33;;;;;;;;;;5077459;28;20486;-59
2023/08/21 14:15:38;;;;;;;5.53;1.27;;;;;;;;;;5083689;28;20405;-59
2023/08/21 14:18:04;;;;;;;4.33;1.10;;;;;;;;;;5084121;28;20750;-59
2023/08/21 14:20:30;;;;;;;6.07;1.30;;;;;;;;;;5079246;28;20503;-59
2023/08/21 14:22:55;;;;;;;4.70;1.13;;;;;;;;;;5083420;28;20504;-59
2023/08/21 14:25:20;;;;;;;4.40;1.07;;;;;;;;;;5065878;28;20752;-59
2023/08/21 14:27:45;;;;;;;4.53;1.20;;;;;;;;;;5081286;28;20451;-59
2023/08/21 14:30:11;;;;;;;7.70;1.00;;;;;;;;;;5081063;28;20429;-59
2023/08/21 14:32:37;;;;;;;9.02;1.08;;;;;;;;;;5071062;28;20545;-59
2023/08/21 14:35:02;;;;;;;3.97;1.10;;;;;;;;;;5062578;28;20400;-59
2023/08/21 14:37:28;;;;;;;3.42;1.00;;;;;;;;;;5059717;28;20417;-59
2023/08/21 14:39:53;;;;;;;3.17;0.90;;;;;;;;;;5063988;28;20416;-59
2023/08/21 14:42:19;;;;;;;3.58;0.93;;;;;;;;;;5082141;28;20396;-59
2023/08/21 14:44:44;;;;;;;3.40;0.80;;;;;;;;;;5079615;28;20402;-59
2023/08/21 14:47:09;;;;;;;3.30;1.20;;;;;;;;;;5082563;28;20409;-59
2023/08/21 14:49:34;;;;;;;3.20;1.00;;;;;;;;;;5066035;28;20397;-59
2023/08/21 14:52:00;;;;;;;3.00;0.80;;;;;;;;;;5072650;28;20813;-59
2023/08/21 14:54:25;;;;;;;3.00;0.70;;;;;;;;;;5060171;28;20388;-59
2023/08/21 14:56:51;;;;;;;3.27;0.60;;;;;;;;;;5063888;28;20407;-59
2023/08/21 14:59:16;;;;;;;2.53;0.70;;;;;;;;;;5063131;28;20498;-59
2023/08/21 15:01:41;;;;;;;4.17;1.10;;;;;;;;;;5058386;28;20469;-59
2023/08/21 15:04:07;;;;;;;4.00;0.80;;;;;;;;;;5062254;28;20798;-60
2023/08/21 15:06:32;;;;;;;2.40;0.60;;;;;;;;;;5063714;28;20431;-59
2023/08/21 15:08:57;;;;;;;2.63;0.70;;;;;;;;;;5058979;28;20404;-59
2023/08/21 15:11:23;;;;;;;4.20;0.70;;;;;;;;;;5057449;28;20388;-59
2023/08/21 15:13:48;;;;;;;3.50;0.90;;;;;;;;;;5063798;28;20484;-59
2023/08/21 15:16:13;;;;;;;4.03;0.70;;;;;;;;;;5059917;28;20442;-58
2023/08/21 15:18:39;;;;;;;3.92;0.80;;;;;;;;;;5060867;28;20505;-59
2023/08/21 15:21:04;;;;;;;3.03;0.60;;;;;;;;;;5062813;28;20447;-60
2023/08/21 15:23:29;;;;;;;2.30;0.50;;;;;;;;;;5062733;28;20406;-59
2023/08/21 15:25:54;;;;;;;3.37;0.60;;;;;;;;;;5058698;28;20428;-59
2023/08/21 15:28:20;;;;;;;2.17;0.50;;;;;;;;;;5054184;28;20847;-59
2023/08/21 15:30:45;;;;;;;1.97;0.50;;;;;;;;;;5063429;28;20392;-59
2023/08/21 15:33:10;;;;;;;2.83;0.60;;;;;;;;;;5059413;28;20500;-59
2023/08/21 15:35:36;;;;;;;2.77;0.50;;;;;;;;;;5055819;28;20833;-59
2023/08/21 15:38:01;;;;;;;3.33;0.77;;;;;;;;;;5062725;28;20910;-60
2023/08/21 15:40:26;;;;;;;3.97;0.70;;;;;;;;;;5061931;28;20885;-59
2023/08/21 15:42:52;;;;;;;3.97;0.70;;;;;;;;;;5058816;28;20882;-59
2023/08/21 15:45:17;;;;;;;2.73;0.60;;;;;;;;;;5061817;28;21165;-59
2023/08/21 15:47:42;;;;;;;2.50;0.70;;;;;;;;;;5063553;28;20529;-59
2023/08/21 15:50:08;;;;;;;3.20;0.90;;;;;;;;;;5057768;28;20405;-59
2023/08/21 15:52:33;;;;;;;6.27;1.40;;;;;;;;;;5062404;28;20420;-59
2023/08/21 15:54:59;;;;;;;4.37;1.10;;;;;;;;;;5061094;28;20461;-59
2023/08/21 15:57:24;;;;;;;3.23;0.80;;;;;;;;;;5054857;28;20796;-59
2023/08/21 15:59:50;;;;;;;7.60;2.37;;;;;;;;;;5052467;28;20408;-59
2023/08/21 16:02:15;;;;;;;5.60;1.33;;;;;;;;;;5062492;28;20410;-59
2023/08/21 16:04:40;;;;;;;9.47;2.63;;;;;;;;;;5052955;28;20423;-59
2023/08/21 16:07:05;;;;;;;10.20;2.20;;;;;;;;;;5046071;28;20490;-60
2023/08/21 16:09:31;;;;;;;4.37;1.03;;;;;;;;;;5031932;28;21002;-59
2023/08/21 16:11:56;;;;;;;3.72;0.90;;;;;;;;;;5023747;28;20407;-59
2023/08/21 16:14:21;;;;;;;2.70;0.80;;;;;;;;;;5028866;28;20484;-59
2023/08/21 16:16:48;;;;;;;3.13;0.70;;;;;;;;;;5036089;28;20398;-59
2023/08/21 16:19:13;;;;;;;3.10;0.68;;;;;;;;;;5037416;28;20495;-59
2023/08/21 16:21:38;;;;;;;2.67;0.67;;;;;;;;;;5029729;28;20493;-60
2023/08/21 16:24:04;;;;;;;2.47;0.50;;;;;;;;;;5033654;28;20518;-60
2023/08/21 16:26:29;;;;;;;2.33;0.60;;;;;;;;;;5031883;28;20404;-59
2023/08/21 16:28:54;;;;;;;2.37;0.60;;;;;;;;;;5031121;28;20435;-59
2023/08/21 16:31:20;;;;;;;1.93;0.60;;;;;;;;;;5028303;28;20830;-59
2023/08/21 16:33:45;;;;;;;2.90;0.80;;;;;;;;;;5024975;28;20750;-59
2023/08/21 16:36:10;;;;;;;3.33;0.57;;;;;;;;;;5023515;28;20435;-59
2023/08/21 16:38:36;;;;;;;4.53;0.90;;;;;;;;;;5026529;28;20403;-59
2023/08/21 16:41:01;;;;;;;2.60;0.80;;;;;;;;;;5035142;28;20768;-60
2023/08/21 16:43:26;;;;;;;4.60;0.77;;;;;;;;;;5031471;28;20900;-59
2023/08/21 16:45:51;;;;;;;3.27;0.70;;;;;;;;;;5032160;28;20517;-59
2023/08/21 16:48:17;;;;;;;3.10;0.70;;;;;;;;;;5036768;28;20421;-60
2023/08/21 16:50:42;;;;;;;8.37;1.40;;;;;;;;;;5036632;28;20411;-59
2023/08/21 16:53:08;;;;;;;5.23;0.97;;;;;;;;;;5034473;28;20420;-59
2023/08/21 16:55:33;;;;;;;3.77;0.83;;;;;;;;;;5028905;28;20399;-59
2023/08/21 16:58:00;;;;;;;4.53;1.10;;;;;;;;;;5032386;28;20780;-59
2023/08/21 17:00:26;;;;;;;2.85;1.08;;;;;;;;;;5028524;28;20426;-59
2023/08/21 17:02:51;;;;;;;6.53;1.23;;;;;;;;;;5043066;28;20482;-59
2023/08/21 17:05:17;;;;;;;9.35;1.10;;;;;;;;;;5039367;28;20447;-59
2023/08/21 17:07:44;;;;;;;2.67;0.70;;;;;;;;;;5034897;28;20422;-59
2023/08/21 17:10:09;;;;;;;2.95;0.60;;;;;;;;;;5034042;28;20418;-59
2023/08/21 17:12:35;;;;;;;3.37;0.60;;;;;;;;;;5037118;28;20399;-59
2023/08/21 17:15:00;;;;;;;6.63;1.23;;;;;;;;;;5033811;28;20415;-62
2023/08/21 17:17:26;;;;;;;4.50;0.80;;;;;;;;;;5037467;28;20392;-59
2023/08/21 17:19:51;;;;;;;6.10;0.80;;;;;;;;;;5025203;28;20402;-59
2023/08/21 17:22:16;;;;;;;3.03;0.80;;;;;;;;;;5029299;28;20849;-59
2023/08/21 17:24:42;;;;;;;3.73;0.90;;;;;;;;;;5032526;28;20743;-59
2023/08/21 17:27:07;;;;;;;3.03;0.77;;;;;;;;;;5034178;28;20407;-59
2023/08/21 17:29:32;;;;;;;5.93;1.20;;;;;;;;;;5038895;28;20800;-59
2023/08/21 17:31:58;;;;;;;5.40;0.80;;;;;;;;;;5035577;28;20867;-59
2023/08/21 17:34:23;;;;;;;4.03;0.80;;;;;;;;;;5032873;28;20418;-59
2023/08/21 17:36:51;;;;;;;4.10;0.80;;;;;;;;;;5034664;28;20411;-59
2023/08/21 17:39:17;;;;;;;3.67;0.90;;;;;;;;;;5030397;28;21253;-59
2023/08/21 17:41:42;;;;;;;3.30;0.70;;;;;;;;;;5026021;28;20491;-59
2023/08/21 17:44:08;;;;;;;7.53;1.10;;;;;;;;;;5025019;28;20399;-59
2023/08/21 17:46:33;;;;;;;4.10;0.90;;;;;;;;;;5035115;28;20925;-59
2023/08/21 17:48:58;;;;;;;2.80;0.67;;;;;;;;;;5034179;28;20495;-59
2023/08/21 17:51:23;;;;;;;3.30;0.70;;;;;;;;;;5033670;28;20406;-59
2023/08/21 17:53:50;;;;;;;15.33;1.30;;;;;;;;;;5036328;28;20407;-59
2023/08/21 17:56:15;;;;;;;4.95;0.80;;;;;;;;;;5034430;28;20412;-59
2023/08/21 17:58:41;;;;;;;2.23;0.60;;;;;;;;;;5033338;28;20423;-59
2023/08/21 18:01:07;;;;;;;2.83;0.70;;;;;;;;;;5035523;28;20426;-59
2023/08/21 18:03:32;;;;;;;5.53;0.98;;;;;;;;;;5018291;28;20417;-59
2023/08/21 18:05:58;;;;;;;3.73;0.57;;;;;;;;;;5013950;28;20763;-59
2023/08/21 18:08:23;;;;;;;2.17;0.70;;;;;;;;;;5015667;28;20413;-59
2023/08/21 18:10:48;;;;;;;2.43;0.60;;;;;;;;;;5026855;28;20432;-59
2023/08/21 18:13:14;;;;;;;3.37;0.60;;;;;;;;;;5027711;28;21022;-59
2023/08/21 18:15:39;;;;;;;3.23;0.73;;;;;;;;;;5026392;28;20897;-59
2023/08/21 18:18:06;;;;;;;4.33;0.70;;;;;;;;;;5029038;28;20409;-59
2023/08/21 18:20:48;;;;;;;6.28;1.00;;;;;;;;;;5030764;28;20487;-59
2023/08/21 18:23:14;;;;;;;3.08;0.70;;;;;;;;;;5030675;28;20401;-59
2023/08/21 18:25:39;;;;;;;1.95;0.70;;;;;;;;;;5015958;28;21117;-59
2023/08/21 18:28:05;;;;;;;7.60;1.00;;;;;;;;;;5020941;28;20532;-59
2023/08/21 18:30:33;;;;;;;44.40;3.63;;;;;;;;;;5018352;28;21075;-59
2023/08/21 18:32:59;;;;;;;8.57;1.50;;;;;;;;;;5023762;28;20417;-59
2023/08/21 18:35:24;;;;;;;5.30;0.90;;;;;;;;;;5032053;28;20923;-59
2023/08/21 18:37:49;;;;;;;3.93;0.80;;;;;;;;;;5032949;28;20452;-59
2023/08/21 18:40:15;;;;;;;10.33;1.17;;;;;;;;;;5030899;28;20454;-59
2023/08/21 18:42:40;;;;;;;3.20;0.70;;;;;;;;;;5028707;28;20895;-59
2023/08/21 18:45:05;;;;;;;5.00;1.03;;;;;;;;;;5032410;28;20403;-59
2023/08/21 18:47:31;;;;;;;5.70;1.10;;;;;;;;;;5023735;28;21034;-59
2023/08/21 18:49:56;;;;;;;4.23;0.80;;;;;;;;;;5021997;28;20446;-59
2023/08/21 18:52:21;;;;;;;3.60;0.80;;;;;;;;;;5017239;28;20403;-59
2023/08/21 18:54:47;;;;;;;3.30;0.80;;;;;;;;;;5013741;28;21245;-59
2023/08/21 18:57:12;;;;;;;3.57;1.00;;;;;;;;;;5023828;28;20410;-60
2023/08/21 18:59:37;;;;;;;3.90;0.90;;;;;;;;;;5028866;28;20402;-59
2023/08/21 19:02:02;;;;;;;2.47;0.77;;;;;;;;;;5029188;28;20812;-60
2023/08/21 19:04:30;;;;;;;3.37;0.80;;;;;;;;;;5028497;28;20401;-59
2023/08/21 19:06:55;;;;;;;4.50;0.93;;;;;;;;;;5027327;28;20961;-59
2023/08/21 19:09:20;;;;;;;5.53;0.98;;;;;;;;;;5032583;28;20467;-59
2023/08/21 19:11:46;;;;;;;5.30;0.90;;;;;;;;;;5023832;28;20550;-59
2023/08/21 19:14:11;;;;;;;3.90;0.90;;;;;;;;;;5018296;28;21197;-59
2023/08/21 19:16:36;;;;;;;3.80;0.90;;;;;;;;;;5022802;28;20403;-59
2023/08/21 19:19:01;;;;;;;3.33;1.10;;;;;;;;;;5028114;28;20420;-60
2023/08/21 19:21:27;;;;;;;3.73;0.83;;;;;;;;;;5027515;28;20495;-59
2023/08/21 19:23:52;;;;;;;8.83;1.30;;;;;;;;;;5029749;28;20430;-59
2023/08/21 19:26:17;;;;;;;9.77;1.17;;;;;;;;;;5031193;28;20412;-59
2023/08/21 19:28:43;;;;;;;5.13;0.87;;;;;;;;;;5027593;28;20408;-59
2023/08/21 19:31:09;;;;;;;4.90;1.13;;;;;;;;;;5027066;28;20999;-59
2023/08/21 19:33:34;;;;;;;3.47;0.90;;;;;;;;;;5029946;28;20410;-59
2023/08/21 19:35:59;;;;;;;3.57;1.07;;;;;;;;;;5021227;28;20534;-59
2023/08/21 19:38:25;;;;;;;3.63;1.00;;;;;;;;;;5019892;28;21218;-59
2023/08/21 19:40:50;;;;;;;3.40;0.90;;;;;;;;;;5024561;28;21015;-59
2023/08/21 19:43:16;;;;;;;3.27;0.80;;;;;;;;;;5030153;28;21017;-59
2023/08/21 19:45:42;;;;;;;5.63;1.20;;;;;;;;;;5025565;28;20415;-59
2023/08/21 19:48:07;;;;;;;5.22;1.13;;;;;;;;;;5028817;28;20830;-59
2023/08/21 19:50:33;;;;;;;4.77;1.00;;;;;;;;;;5041723;28;20467;-59
2023/08/21 19:52:59;;;;;;;3.30;1.00;;;;;;;;;;5041186;28;20490;-59
2023/08/21 19:55:24;;;;;;;4.97;1.10;;;;;;;;;;5040738;28;20464;-59
2023/08/21 19:57:49;;;;;;;2.97;1.10;;;;;;;;;;5034577;28;21004;-59
2023/08/21 20:00:15;;;;;;;5.53;1.10;;;;;;;;;;5033031;28;20432;-59
2023/08/21 20:02:40;;;;;;;4.00;1.00;;;;;;;;;;5033810;28;20402;-59
2023/08/21 20:05:06;;;;;;;3.37;1.00;;;;;;;;;;5040577;28;20469;-59
2023/08/21 20:07:31;;;;;;;3.92;1.10;;;;;;;;;;5042122;28;20425;-59
2023/08/21 20:09:56;;;;;;;3.83;1.15;;;;;;;;;;5041651;28;20995;-59
2023/08/21 20:12:22;;;;;;;4.77;1.30;;;;;;;;;;5039953;28;20885;-59
2023/08/21 20:14:47;;;;;;;5.33;1.40;;;;;;;;;;5041507;28;20416;-59
2023/08/21 20:17:13;;;;;;;3.38;1.08;;;;;;;;;;5022852;28;21019;-59
2023/08/21 20:19:38;;;;;;;3.83;1.10;;;;;;;;;;5036558;28;21122;-59
2023/08/21 20:22:04;;;;;;;4.33;1.17;;;;;;;;;;5037734;28;20425;-59
2023/08/21 20:24:30;;;;;;;5.23;1.30;;;;;;;;;;5043170;28;20482;-59
2023/08/21 20:26:55;;;;;;;4.05;1.30;;;;;;;;;;5041931;28;20488;-59
2023/08/21 20:29:21;;;;;;;3.67;1.00;;;;;;;;;;5045206;28;20450;-59
2023/08/21 20:31:46;;;;;;;4.30;1.07;;;;;;;;;;5046149;28;20880;-59
2023/08/21 20:34:12;;;;;;;4.50;1.30;;;;;;;;;;5044096;28;20900;-59
2023/08/21 20:36:37;;;;;;;3.72;1.20;;;;;;;;;;5045632;28;20485;-59
2023/08/21 20:39:03;;;;;;;4.80;1.30;;;;;;;;;;5044335;28;20410;-59
2023/08/21 20:41:28;;;;;;;5.43;1.20;;;;;;;;;;5042224;28;20509;-59
2023/08/21 20:43:54;;;;;;;5.13;1.50;;;;;;;;;;5037426;28;20484;-59
2023/08/21 20:46:19;;;;;;;2.87;0.93;;;;;;;;;;5036192;28;20492;-59
2023/08/21 20:48:45;;;;;;;4.72;1.10;;;;;;;;;;5039272;28;20418;-59
2023/08/21 20:51:10;;;;;;;5.27;1.10;;;;;;;;;;5043943;28;20405;-60
2023/08/21 20:53:36;;;;;;;4.97;1.20;;;;;;;;;;5044444;28;20790;-59
2023/08/21 20:56:01;;;;;;;3.03;0.97;;;;;;;;;;5044844;28;20447;-60
2023/08/21 20:58:27;;;;;;;5.78;1.60;;;;;;;;;;5044627;28;20802;-59
2023/08/21 21:00:52;;;;;;;5.50;1.63;;;;;;;;;;5043801;28;20413;-59
2023/08/21 21:03:18;;;;;;;4.70;1.40;;;;;;;;;;5044935;28;20413;-59
2023/08/21 21:05:43;;;;;;;5.03;1.53;;;;;;;;;;5037153;28;20926;-59
2023/08/21 21:08:08;;;;;;;4.63;1.37;;;;;;;;;;5035044;28;20768;-59
2023/08/21 21:10:34;;;;;;;5.63;1.40;;;;;;;;;;5038994;28;20409;-59
2023/08/21 21:12:59;;;;;;;4.03;1.20;;;;;;;;;;5048126;28;20951;-59
2023/08/21 21:15:24;;;;;;;4.17;1.20;;;;;;;;;;5043400;28;20500;-59
2023/08/21 21:17:50;;;;;;;4.20;1.20;;;;;;;;;;5044685;28;20397;-59
2023/08/21 21:20:15;;;;;;;3.93;1.27;;;;;;;;;;5043639;28;20488;-59
2023/08/21 21:22:40;;;;;;;4.13;1.40;;;;;;;;;;5043665;28;20509;-59
2023/08/21 21:25:06;;;;;;;4.43;1.17;;;;;;;;;;5043607;28;20922;-59
2023/08/21 21:27:31;;;;;;;5.93;1.23;;;;;;;;;;5039926;28;20415;-59
2023/08/21 21:29:56;;;;;;;5.17;1.60;;;;;;;;;;5035896;28;20405;-59
2023/08/21 21:32:22;;;;;;;3.97;1.10;;;;;;;;;;5035091;28;20892;-59
2023/08/21 21:34:47;;;;;;;4.83;1.40;;;;;;;;;;5040611;28;20901;-59
2023/08/21 21:37:12;;;;;;;4.57;1.57;;;;;;;;;;5042857;28;20394;-59
2023/08/21 21:39:37;;;;;;;5.23;1.30;;;;;;;;;;5043762;28;20488;-59
2023/08/21 21:42:03;;;;;;;4.33;1.20;;;;;;;;;;5043152;28;20496;-59
2023/08/21 21:44:29;;;;;;;4.03;1.30;;;;;;;;;;5043711;28;20824;-59
2023/08/21 21:46:54;;;;;;;4.55;1.25;;;;;;;;;;5044256;28;21009;-59
2023/08/21 21:49:19;;;;;;;3.13;1.10;;;;;;;;;;5040663;28;20408;-59
2023/08/21 21:51:45;;;;;;;3.37;1.20;;;;;;;;;;5037495;28;20996;-59
2023/08/21 21:54:10;;;;;;;4.63;1.30;;;;;;;;;;5035667;28;20420;-59
2023/08/21 21:56:35;;;;;;;5.50;1.40;;;;;;;;;;5036503;28;20814;-59
2023/08/21 21:59:00;;;;;;;5.57;1.23;;;;;;;;;;5042488;28;20417;-60
2023/08/21 22:01:26;;;;;;;3.87;1.33;;;;;;;;;;5043671;28;21131;-59
2023/08/21 22:03:51;;;;;;;5.83;1.57;;;;;;;;;;5041940;28;20443;-59
2023/08/21 22:06:16;;;;;;;6.63;1.90;;;;;;;;;;5042414;28;20436;-59
2023/08/21 22:08:42;;;;;;;5.40;1.60;;;;;;;;;;5042804;28;20413;-59
2023/08/21 22:11:07;;;;;;;4.53;1.37;;;;;;;;;;5042877;28;20584;-60
2023/08/21 22:13:32;;;;;;;4.37;1.20;;;;;;;;;;5036988;28;20443;-59
2023/08/21 22:15:58;;;;;;;4.03;1.23;;;;;;;;;;5035725;28;20771;-59
2023/08/21 22:18:23;;;;;;;3.37;1.30;;;;;;;;;;5035024;28;20437;-59
2023/08/21 22:20:48;;;;;;;3.73;1.30;;;;;;;;;;5043585;28;20842;-59
2023/08/21 22:23:14;;;;;;;5.57;1.23;;;;;;;;;;5049728;28;20544;-59
2023/08/21 22:25:39;;;;;;;5.23;1.47;;;;;;;;;;5060064;28;20419;-59
2023/08/21 22:28:04;;;;;;;4.83;1.23;;;;;;;;;;5063165;28;20423;-59
2023/08/21 22:30:30;;;;;;;4.37;1.30;;;;;;;;;;5063772;28;20453;-59
2023/08/21 22:32:55;;;;;;;4.83;1.30;;;;;;;;;;5061780;28;20403;-59
2023/08/21 22:35:20;;;;;;;4.83;1.47;;;;;;;;;;5061187;28;20392;-59
2023/08/21 22:37:46;;;;;;;5.00;1.33;;;;;;;;;;5070898;28;20735;-59
2023/08/21 22:40:11;;;;;;;4.93;1.60;;;;;;;;;;5063219;28;20416;-59
2023/08/21 22:42:36;;;;;;;4.13;1.30;;;;;;;;;;5058352;28;20414;-59
2023/08/21 22:45:02;;;;;;;6.00;2.00;;;;;;;;;;5062713;28;20422;-59
2023/08/21 22:47:27;;;;;;;7.18;2.00;;;;;;;;;;5083041;28;20477;-59
2023/08/21 22:49:53;;;;;;;5.67;1.77;;;;;;;;;;5080965;28;20497;-59
2023/08/21 22:52:18;;;;;;;6.00;1.53;;;;;;;;;;5082597;28;20406;-59
2023/08/21 22:54:43;;;;;;;6.87;1.40;;;;;;;;;;5083634;28;20413;-59
2023/08/21 22:57:08;;;;;;;5.63;1.50;;;;;;;;;;5081927;28;20418;-59
2023/08/21 22:59:34;;;;;;;4.78;1.45;;;;;;;;;;5079930;28;21018;-59
2023/08/21 23:02:00;;;;;;;5.15;1.50;;;;;;;;;;5066003;28;20421;-59
2023/08/21 23:04:25;;;;;;;6.20;1.30;;;;;;;;;;5082621;28;20394;-59
2023/08/21 23:06:50;;;;;;;3.33;1.17;;;;;;;;;;5078379;28;20892;-59
2023/08/21 23:09:15;;;;;;;3.47;1.10;;;;;;;;;;5082571;28;20406;-59
2023/08/21 23:11:41;;;;;;;3.57;1.37;;;;;;;;;;5074832;28;20402;-59
2023/08/21 23:14:07;;;;;;;3.93;1.13;;;;;;;;;;5079337;28;20870;-60
2023/08/21 23:16:32;;;;;;;5.72;1.60;;;;;;;;;;5064338;28;20399;-59
2023/08/21 23:18:57;;;;;;;6.13;1.65;;;;;;;;;;5083901;28;20419;-59
2023/08/21 23:21:23;;;;;;;8.13;2.67;;;;;;;;;;5075442;28;20510;-59
2023/08/21 23:23:48;;;;;;;7.63;2.20;;;;;;;;;;5076096;28;20426;-59
2023/08/21 23:26:13;;;;;;;4.90;1.70;;;;;;;;;;5080313;28;20430;-59
2023/08/21 23:28:39;;;;;;;4.77;1.40;;;;;;;;;;5083157;28;20394;-59
2023/08/21 23:31:04;;;;;;;4.97;1.60;;;;;;;;;;5075906;28;20469;-60
2023/08/21 23:33:29;;;;;;;4.63;1.30;;;;;;;;;;5066050;28;20396;-59
2023/08/21 23:35:55;;;;;;;4.83;1.40;;;;;;;;;;5083261;28;20413;-59
2023/08/21 23:38:21;;;;;;;4.03;1.30;;;;;;;;;;5079238;28;20733;-59
2023/08/21 23:40:46;;;;;;;5.18;1.30;;;;;;;;;;5081106;28;20402;-59
2023/08/21 23:43:11;;;;;;;4.63;1.33;;;;;;;;;;5079844;28;20409;-59
2023/08/21 23:45:37;;;;;;;5.33;1.57;;;;;;;;;;5064068;28;20916;-59
2023/08/21 23:48:02;;;;;;;6.47;1.27;;;;;;;;;;5078775;28;20527;-59
2023/08/21 23:50:29;;;;;;;5.13;1.30;;;;;;;;;;5083067;28;20404;-59
2023/08/21 23:52:55;;;;;;;4.45;1.30;;;;;;;;;;5083527;28;20398;-59
2023/08/21 23:55:20;;;;;;;3.20;1.20;;;;;;;;;;5077522;28;20406;-59
2023/08/21 23:57:45;;;;;;;4.60;1.30;;;;;;;;;;5081601;28;20410;-59
